Wetterstation Vordersexau
Wetterdaten: Woche 03.11.14 - 09.11.14 (KW45)
Datum Zeit Temp. A. Feuchte A. Luftdruck Regen Wind Richtung Taupunkt Windchill Windben
03.11.2014 00:00 8,2 C 85 % 984,0 hPa 0,0 l/m 0,0 km/h N-NO 5,8 C 8,2 C 0,0 km/h
03.11.2014 01:00 8,2 C 85 % 983,9 hPa 0,0 l/m 0,0 km/h O-SO 5,8 C 8,2 C 0,0 km/h
03.11.2014 02:00 8,3 C 85 % 983,4 hPa 0,0 l/m 0,0 km/h O-NO 5,9 C 8,3 C 0,0 km/h
03.11.2014 03:00 8,6 C 85 % 983,2 hPa 0,0 l/m 0,0 km/h NO 6,2 C 8,6 C 0,0 km/h
03.11.2014 04:00 10,2 C 85 % 982,4 hPa 0,0 l/m 0,0 km/h S 7,8 C 10,2 C 0,0 km/h
03.11.2014 05:00 12,6 C 83 % 981,8 hPa 0,0 l/m 0,0 km/h W-SW 9,8 C 12,6 C 0,0 km/h
03.11.2014 06:00 11,9 C 79 % 981,5 hPa 0,0 l/m 0,0 km/h SO 8,4 C 11,9 C 0,0 km/h
03.11.2014 07:00 9,3 C 83 % 981,2 hPa 0,0 l/m 0,0 km/h SO 6,6 C 9,3 C 0,0 km/h
03.11.2014 08:00 14,7 C 79 % 981,0 hPa 0,0 l/m 0,0 km/h SO 11,1 C 14,7 C 0,0 km/h
03.11.2014 09:00 20,2 C 61 % 980,3 hPa 0,0 l/m 0,0 km/h SO 12,4 C 20,2 C 0,0 km/h
03.11.2014 10:00 17,4 C 70 % 979,9 hPa 0,0 l/m 0,0 km/h W-NW 11,9 C 17,4 C 0,0 km/h
03.11.2014 11:00 17,2 C 64 % 979,7 hPa 0,0 l/m 9,1 km/h S 10,3 C 15,9 C 5,0 km/h
03.11.2014 12:00 17,3 C 63 % 978,8 hPa 0,0 l/m 16,8 km/h S-SO 10,2 C 13,5 C 9,4 km/h
03.11.2014 13:00 15,4 C 69 % 977,7 hPa 0,0 l/m 0,0 km/h O-SO 9,7 C 15,4 C 0,0 km/h
03.11.2014 14:00 15,4 C 69 % 976,2 hPa 0,0 l/m 0,0 km/h W 9,7 C 15,4 C 0,0 km/h
03.11.2014 15:00 14,1 C 75 % 976,7 hPa 0,0 l/m 0,0 km/h W 9,7 C 14,1 C 0,0 km/h
03.11.2014 16:00 12,4 C 79 % 974,5 hPa 0,0 l/m 0,0 km/h W-NW 8,9 C 12,4 C 0,0 km/h
03.11.2014 17:00 11,6 C 82 % 973,0 hPa 0,0 l/m 0,0 km/h S-SO 8,6 C 11,6 C 0,0 km/h
03.11.2014 18:00 11,4 C 83 % 973,1 hPa 0,0 l/m 0,0 km/h W-NW 8,6 C 11,4 C 0,0 km/h
03.11.2014 19:00 11,0 C 84 % 972,3 hPa 0,0 l/m 0,0 km/h W-NW 8,4 C 11,0 C 0,0 km/h
03.11.2014 20:00 10,7 C 84 % 971,9 hPa 0,0 l/m 0,0 km/h SO 8,1 C 10,7 C 0,0 km/h
03.11.2014 21:00 10,5 C 84 % 970,4 hPa 0,0 l/m 0,0 km/h SO 7,9 C 10,5 C 0,0 km/h
03.11.2014 22:00 8,9 C 85 % 970,1 hPa 0,0 l/m 0,0 km/h O-SO 6,5 C 8,9 C 0,0 km/h
03.11.2014 23:00 8,5 C 85 % 969,1 hPa 0,0 l/m 0,0 km/h O-SO 6,1 C 8,5 C 0,0 km/h
04.11.2014 00:00 7,9 C 85 % 968,8 hPa 0,0 l/m 0,0 km/h O-SO 5,5 C 7,9 C 0,0 km/h
04.11.2014 01:00 8,4 C 85 % 968,1 hPa 0,0 l/m 0,0 km/h W 6,0 C 8,4 C 0,0 km/h
04.11.2014 02:00 9,3 C 84 % 967,9 hPa 0,0 l/m 0,0 km/h W 6,7 C 9,3 C 0,0 km/h
04.11.2014 03:00 9,0 C 85 % 968,0 hPa 0,0 l/m 0,0 km/h SO 6,6 C 9,0 C 0,0 km/h
04.11.2014 04:00 8,8 C 85 % 968,2 hPa 0,0 l/m 0,0 km/h SO 6,4 C 8,8 C 0,0 km/h
04.11.2014 05:00 9,1 C 85 % 968,0 hPa 0,0 l/m 0,0 km/h O 6,7 C 9,1 C 0,0 km/h
04.11.2014 06:00 8,6 C 85 % 967,8 hPa 0,0 l/m 0,0 km/h O-SO 6,2 C 8,6 C 0,0 km/h
04.11.2014 07:00 8,8 C 85 % 968,2 hPa 0,0 l/m 4,5 km/h O-SO 6,4 C 8,8 C 2,5 km/h
04.11.2014 08:00 10,9 C 84 % 967,6 hPa 0,0 l/m 0,6 km/h N 8,3 C 10,9 C 0,4 km/h
04.11.2014 09:00 11,2 C 82 % 967,5 hPa 0,0 l/m 0,0 km/h W 8,2 C 11,2 C 0,0 km/h
04.11.2014 10:00 11,9 C 82 % 967,2 hPa 0,0 l/m 0,0 km/h W 8,9 C 11,9 C 0,0 km/h
04.11.2014 11:00 13,3 C 80 % 967,3 hPa 0,0 l/m 0,0 km/h N-NW 9,9 C 13,3 C 0,0 km/h
04.11.2014 12:00 13,9 C 77 % 966,2 hPa 0,0 l/m 0,0 km/h W-NW 9,9 C 13,9 C 0,0 km/h
04.11.2014 13:00 15,9 C 73 % 966,0 hPa 0,0 l/m 0,0 km/h W-NW 11,1 C 15,9 C 0,0 km/h
04.11.2014 14:00 13,8 C 77 % 965,8 hPa 0,0 l/m 0,0 km/h W 9,8 C 13,8 C 0,0 km/h
04.11.2014 15:00 13,9 C 76 % 965,6 hPa 0,0 l/m 0,0 km/h W 9,7 C 13,9 C 0,0 km/h
04.11.2014 16:00 10,9 C 82 % 965,7 hPa 0,0 l/m 0,0 km/h W-NW 7,9 C 10,9 C 0,0 km/h
04.11.2014 17:00 10,1 C 84 % 965,7 hPa 0,0 l/m 0,0 km/h W-NW 7,5 C 10,1 C 0,0 km/h
04.11.2014 18:00 10,1 C 85 % 966,1 hPa 0,0 l/m 0,0 km/h N-NO 7,7 C 10,1 C 0,0 km/h
04.11.2014 19:00 11,2 C 85 % 966,3 hPa 0,0 l/m 0,0 km/h N-NW 8,8 C 11,2 C 0,0 km/h
04.11.2014 20:00 10,3 C 85 % 966,5 hPa 0,0 l/m 1,8 km/h N-NO 7,9 C 10,3 C 1,8 km/h
04.11.2014 21:00 9,6 C 85 % 967,5 hPa 0,2 l/m 0,0 km/h N 7,2 C 9,6 C 0,0 km/h
04.11.2014 22:00 9,3 C 85 % 967,9 hPa 0,2 l/m 0,0 km/h N-NO 6,9 C 9,3 C 0,0 km/h
04.11.2014 23:00 8,9 C 85 % 968,7 hPa 0,4 l/m 0,0 km/h N 6,5 C 8,9 C 0,0 km/h
05.11.2014 00:00 8,8 C 85 % 969,5 hPa 0,6 l/m 0,0 km/h N 6,4 C 8,8 C 0,0 km/h
05.11.2014 01:00 7,9 C 84 % 970,2 hPa 0,6 l/m 0,0 km/h N 5,4 C 7,9 C 0,0 km/h
05.11.2014 02:00 7,9 C 84 % 970,9 hPa 0,2 l/m 0,0 km/h N 5,4 C 7,9 C 0,0 km/h
05.11.2014 03:00 7,8 C 83 % 970,4 hPa 0,2 l/m 0,0 km/h N 5,1 C 7,8 C 0,0 km/h
05.11.2014 04:00 7,5 C 83 % 970,9 hPa 0,2 l/m 0,0 km/h N 4,8 C 7,5 C 0,0 km/h
05.11.2014 05:00 7,4 C 82 % 971,3 hPa 0,4 l/m 0,0 km/h N 4,5 C 7,4 C 0,0 km/h
05.11.2014 06:00 7,2 C 82 % 972,1 hPa 0,8 l/m 0,0 km/h W 4,3 C 7,2 C 0,0 km/h
05.11.2014 07:00 7,1 C 82 % 973,1 hPa 0,6 l/m 0,0 km/h W 4,2 C 7,1 C 0,0 km/h
05.11.2014 08:00 6,8 C 81 % 974,2 hPa 0,4 l/m 0,0 km/h W 3,8 C 6,8 C 0,0 km/h
05.11.2014 09:00 6,9 C 81 % 974,4 hPa 0,4 l/m 0,0 km/h W 3,9 C 6,9 C 0,0 km/h
05.11.2014 10:00 7,3 C 81 % 975,1 hPa 0,4 l/m 0,0 km/h W-SW 4,3 C 7,3 C 0,0 km/h
05.11.2014 11:00 6,9 C 82 % 975,1 hPa 0,0 l/m 0,0 km/h SO 4,0 C 6,9 C 0,0 km/h
05.11.2014 12:00 6,7 C 84 % 975,8 hPa 0,4 l/m 1,3 km/h SO 4,2 C 6,7 C 0,7 km/h
05.11.2014 13:00 6,7 C 83 % 975,6 hPa 0,4 l/m 0,0 km/h W-SW 4,0 C 6,7 C 0,0 km/h
05.11.2014 14:00 6,3 C 84 % 976,2 hPa 0,2 l/m 2,6 km/h W-SW 3,8 C 6,3 C 1,4 km/h
05.11.2014 15:00 6,3 C 84 % 976,5 hPa 0,4 l/m 0,0 km/h W-SW 3,8 C 6,3 C 0,0 km/h
05.11.2014 16:00 6,1 C 84 % 977,2 hPa 0,0 l/m 0,0 km/h W-SW 3,6 C 6,1 C 0,0 km/h
05.11.2014 17:00 6,1 C 83 % 977,5 hPa 0,4 l/m 0,0 km/h W-SW 3,4 C 6,1 C 0,0 km/h
05.11.2014 18:00 5,8 C 83 % 978,1 hPa 0,0 l/m 0,0 km/h W-SW 3,1 C 5,8 C 0,0 km/h
05.11.2014 19:00 5,8 C 84 % 978,4 hPa 0,2 l/m 0,0 km/h SO 3,3 C 5,8 C 0,0 km/h
05.11.2014 20:00 5,9 C 83 % 979,5 hPa 0,2 l/m 0,0 km/h SO 3,2 C 5,9 C 0,0 km/h
05.11.2014 21:00 5,9 C 83 % 979,8 hPa 0,4 l/m 0,0 km/h SO 3,2 C 5,9 C 0,0 km/h
05.11.2014 22:00 5,9 C 82 % 980,4 hPa 0,2 l/m 0,0 km/h SO 3,1 C 5,9 C 0,0 km/h
05.11.2014 23:00 5,9 C 82 % 980,4 hPa 0,2 l/m 0,0 km/h SO 3,1 C 5,9 C 0,0 km/h
06.11.2014 00:00 5,8 C 82 % 980,8 hPa 0,2 l/m 0,0 km/h SO 3,0 C 5,8 C 0,0 km/h
06.11.2014 01:00 5,9 C 81 % 981,1 hPa 0,0 l/m 0,0 km/h SO 2,9 C 5,9 C 0,0 km/h
06.11.2014 02:00 6,1 C 81 % 981,4 hPa 0,0 l/m 0,0 km/h SO 3,1 C 6,1 C 0,0 km/h
06.11.2014 03:00 6,1 C 81 % 981,6 hPa 0,0 l/m 0,0 km/h SO 3,1 C 6,1 C 0,0 km/h
06.11.2014 04:00 6,1 C 81 % 982,2 hPa 0,0 l/m 0,0 km/h SO 3,1 C 6,1 C 0,0 km/h
06.11.2014 05:00 6,1 C 81 % 982,2 hPa 0,0 l/m 0,0 km/h SO 3,1 C 6,1 C 0,0 km/h
06.11.2014 06:00 6,1 C 81 % 982,7 hPa 0,0 l/m 0,0 km/h SO 3,1 C 6,1 C 0,0 km/h
06.11.2014 07:00 6,1 C 80 % 983,3 hPa 0,0 l/m 0,0 km/h SO 2,9 C 6,1 C 0,0 km/h
06.11.2014 08:00 6,9 C 79 % 983,8 hPa 0,0 l/m 0,0 km/h W 3,5 C 6,9 C 0,0 km/h
06.11.2014 09:00 8,6 C 85 % 984,0 hPa 0,0 l/m 0,0 km/h W 6,2 C 8,6 C 0,0 km/h
06.11.2014 10:00 14,9 C 77 % 984,1 hPa 0,0 l/m 0,0 km/h W 10,9 C 14,9 C 0,0 km/h
06.11.2014 11:00 14,4 C 70 % 984,2 hPa 0,0 l/m 0,0 km/h W 9,0 C 14,4 C 0,0 km/h
06.11.2014 12:00 12,1 C 71 % 983,6 hPa 0,0 l/m 0,0 km/h W 7,0 C 12,1 C 0,0 km/h
06.11.2014 13:00 13,0 C 68 % 983,2 hPa 0,0 l/m 0,0 km/h W-NW 7,2 C 13,0 C 0,0 km/h
06.11.2014 14:00 17,3 C 57 % 983,2 hPa 0,0 l/m 0,0 km/h W-NW 8,7 C 17,3 C 0,0 km/h
06.11.2014 15:00 13,6 C 69 % 983,3 hPa 0,0 l/m 0,0 km/h W-NW 8,0 C 13,6 C 0,0 km/h
06.11.2014 16:00 11,9 C 67 % 983,6 hPa 0,0 l/m 0,0 km/h W-NW 6,0 C 11,9 C 0,0 km/h
06.11.2014 17:00 6,8 C 80 % 984,2 hPa 0,0 l/m 0,0 km/h NW 3,6 C 6,8 C 0,0 km/h
06.11.2014 18:00 4,9 C 83 % 984,7 hPa 0,0 l/m 0,0 km/h NW 2,3 C 4,9 C 0,0 km/h
06.11.2014 19:00 5,3 C 85 % 984,5 hPa 0,0 l/m 0,0 km/h NW 3,0 C 5,3 C 0,0 km/h
06.11.2014 20:00 5,4 C 85 % 984,4 hPa 0,0 l/m 0,0 km/h NW 3,1 C 5,4 C 0,0 km/h
06.11.2014 21:00 4,8 C 86 % 984,2 hPa 0,0 l/m 0,0 km/h NW 2,7 C 4,8 C 0,0 km/h
06.11.2014 22:00 3,4 C 86 % 984,0 hPa 0,0 l/m 0,0 km/h NW 1,3 C 3,4 C 0,0 km/h
06.11.2014 23:00 1,6 C 86 % 983,2 hPa 0,0 l/m 0,0 km/h NW -0,5 C 1,6 C 0,0 km/h
07.11.2014 00:00 3,2 C 86 % 983,4 hPa 0,0 l/m 0,0 km/h NW 1,1 C 3,2 C 0,0 km/h
07.11.2014 01:00 2,9 C 86 % 983,4 hPa 0,0 l/m 0,0 km/h S-SO 0,8 C 2,9 C 0,0 km/h
07.11.2014 02:00 3,1 C 85 % 982,8 hPa 0,0 l/m 0,0 km/h S 0,8 C 3,1 C 0,0 km/h
07.11.2014 03:00 3,0 C 85 % 982,0 hPa 0,0 l/m 0,0 km/h O-SO 0,7 C 3,0 C 0,0 km/h
07.11.2014 04:00 3,2 C 84 % 981,6 hPa 0,0 l/m 0,0 km/h O-NO 0,8 C 3,2 C 0,0 km/h
07.11.2014 05:00 1,9 C 85 % 980,8 hPa 0,0 l/m 0,0 km/h NO -0,3 C 1,9 C 0,0 km/h
07.11.2014 06:00 2,1 C 85 % 980,4 hPa 0,0 l/m 0,0 km/h O-NO -0,2 C 2,1 C 0,0 km/h
07.11.2014 07:00 0,9 C 85 % 980,5 hPa 0,0 l/m 0,0 km/h O-NO -1,3 C 0,9 C 0,0 km/h
07.11.2014 08:00 3,3 C 80 % 980,0 hPa 0,0 l/m 0,0 km/h W-NW 0,2 C 3,3 C 0,0 km/h
07.11.2014 09:00 10,5 C 79 % 980,2 hPa 0,0 l/m 3,2 km/h O-NO 7,0 C 10,5 C 1,8 km/h
07.11.2014 10:00 15,0 C 68 % 979,4 hPa 0,0 l/m 0,0 km/h N-NW 9,1 C 15,0 C 0,0 km/h
07.11.2014 11:00 16,8 C 62 % 978,9 hPa 0,0 l/m 0,0 km/h NW 9,5 C 16,8 C 0,0 km/h
07.11.2014 12:00 12,1 C 68 % 978,7 hPa 0,0 l/m 0,0 km/h NW 6,4 C 12,1 C 0,0 km/h
07.11.2014 13:00 16,1 C 62 % 978,6 hPa 0,0 l/m 0,0 km/h S-SW 8,8 C 16,1 C 0,0 km/h
07.11.2014 14:00 15,1 C 58 % 978,8 hPa 0,0 l/m 7,1 km/h SW 6,9 C 14,7 C 4,0 km/h
07.11.2014 15:00 11,0 C 68 % 979,9 hPa 0,0 l/m 13,0 km/h S 5,3 C 7,2 C 7,2 km/h
07.11.2014 16:00 8,6 C 80 % 980,9 hPa 0,4 l/m 1,9 km/h S 5,3 C 8,6 C 1,1 km/h
07.11.2014 17:00 9,3 C 83 % 981,2 hPa 0,0 l/m 8,4 km/h W-SW 6,6 C 7,8 C 4,7 km/h
07.11.2014 18:00 9,6 C 83 % 982,4 hPa 0,0 l/m 1,9 km/h SW 6,9 C 9,6 C 1,1 km/h
07.11.2014 19:00 9,8 C 82 % 983,1 hPa 0,0 l/m 0,0 km/h W 6,9 C 9,8 C 0,0 km/h
07.11.2014 20:00 8,9 C 83 % 983,8 hPa 0,0 l/m 0,0 km/h O 6,2 C 8,9 C 0,0 km/h
07.11.2014 21:00 7,3 C 84 % 984,0 hPa 0,0 l/m 0,0 km/h N-NO 4,8 C 7,3 C 0,0 km/h
07.11.2014 22:00 6,3 C 85 % 983,9 hPa 0,0 l/m 0,0 km/h S-SW 4,0 C 6,3 C 0,0 km/h
07.11.2014 23:00 8,1 C 85 % 983,9 hPa 0,0 l/m 1,8 km/h S-SW 5,7 C 8,1 C 1,8 km/h
08.11.2014 00:00 8,8 C 84 % 984,1 hPa 0,0 l/m 1,1 km/h N-NO 6,2 C 8,8 C 1,1 km/h
08.11.2014 01:00 5,9 C 85 % 984,6 hPa 0,0 l/m 0,0 km/h N-NO 3,6 C 5,9 C 0,0 km/h
08.11.2014 02:00 5,5 C 86 % 984,7 hPa 0,0 l/m 1,1 km/h NO 3,3 C 5,5 C 1,1 km/h
08.11.2014 03:00 4,2 C 85 % 984,3 hPa 0,0 l/m 0,0 km/h NO 1,9 C 4,2 C 0,0 km/h
08.11.2014 04:00 4,5 C 85 % 984,8 hPa 0,0 l/m 0,0 km/h N-NO 2,2 C 4,5 C 0,0 km/h
08.11.2014 05:00 4,1 C 85 % 985,0 hPa 0,0 l/m 0,0 km/h N-NO 1,8 C 4,1 C 0,0 km/h
08.11.2014 06:00 3,8 C 85 % 985,2 hPa 0,0 l/m 0,0 km/h NO 1,5 C 3,8 C 0,0 km/h
08.11.2014 07:00 3,8 C 83 % 985,5 hPa 0,0 l/m 0,0 km/h SO 1,2 C 3,8 C 0,0 km/h
08.11.2014 08:00 7,9 C 80 % 985,8 hPa 0,0 l/m 0,0 km/h SO 4,7 C 7,9 C 0,0 km/h
08.11.2014 09:00 12,9 C 79 % 985,7 hPa 0,0 l/m 0,0 km/h W-SW 9,3 C 12,9 C 0,0 km/h
08.11.2014 10:00 17,3 C 65 % 985,5 hPa 0,0 l/m 18,8 km/h S-SW 10,7 C 13,0 C 10,4 km/h
08.11.2014 11:00 19,1 C 59 % 984,7 hPa 0,0 l/m 0,0 km/h N 10,9 C 19,1 C 0,0 km/h
08.11.2014 12:00 18,9 C 54 % 983,9 hPa 0,0 l/m 0,0 km/h W 9,4 C 18,9 C 0,0 km/h
08.11.2014 13:00 19,5 C 51 % 983,5 hPa 0,0 l/m 0,0 km/h W-NW 9,1 C 19,5 C 0,0 km/h
08.11.2014 14:00 21,8 C 45 % 982,5 hPa 0,0 l/m 0,0 km/h NW 9,3 C 21,8 C 0,0 km/h
08.11.2014 15:00 18,6 C 50 % 981,7 hPa 0,0 l/m 0,0 km/h NW 8,0 C 18,6 C 0,0 km/h
08.11.2014 16:00 12,1 C 64 % 981,4 hPa 0,0 l/m 0,0 km/h N-NW 5,5 C 12,1 C 0,0 km/h
08.11.2014 17:00 7,8 C 77 % 981,3 hPa 0,0 l/m 0,0 km/h N-NW 4,0 C 7,8 C 0,0 km/h
08.11.2014 18:00 6,1 C 81 % 980,7 hPa 0,0 l/m 0,0 km/h NO 3,1 C 6,1 C 0,0 km/h
08.11.2014 19:00 5,8 C 84 % 980,6 hPa 0,0 l/m 0,0 km/h O 3,3 C 5,8 C 0,0 km/h
08.11.2014 20:00 4,8 C 85 % 980,8 hPa 0,0 l/m 0,0 km/h O-SO 2,5 C 4,8 C 0,0 km/h
08.11.2014 21:00 4,1 C 85 % 980,8 hPa 0,0 l/m 0,0 km/h O 1,8 C 4,1 C 0,0 km/h
08.11.2014 22:00 3,8 C 85 % 980,4 hPa 0,0 l/m 0,0 km/h O-SO 1,5 C 3,8 C 0,0 km/h
08.11.2014 23:00 4,1 C 85 % 980,0 hPa 0,0 l/m 0,0 km/h O-NO 1,8 C 4,1 C 0,0 km/h
09.11.2014 00:00 4,1 C 85 % 979,8 hPa 0,0 l/m 0,0 km/h O-NO 1,8 C 4,1 C 0,0 km/h
09.11.2014 01:00 4,1 C 85 % 979,7 hPa 0,0 l/m 0,0 km/h O-SO 1,8 C 4,1 C 0,0 km/h
09.11.2014 02:00 3,0 C 86 % 980,1 hPa 0,0 l/m 0,0 km/h O-SO 0,9 C 3,0 C 0,0 km/h
09.11.2014 03:00 2,6 C 86 % 979,9 hPa 0,0 l/m 0,0 km/h O-SO 0,5 C 2,6 C 0,0 km/h
09.11.2014 04:00 2,1 C 86 % 979,5 hPa 0,0 l/m 0,0 km/h SO 0,0 C 2,1 C 0,0 km/h
09.11.2014 05:00 2,7 C 85 % 979,3 hPa 0,0 l/m 0,0 km/h SO 0,4 C 2,7 C 0,0 km/h
09.11.2014 06:00 2,3 C 85 % 979,2 hPa 0,0 l/m 0,0 km/h SO 0,0 C 2,3 C 0,0 km/h
09.11.2014 07:00 2,5 C 85 % 980,0 hPa 0,0 l/m 0,0 km/h SO 0,2 C 2,5 C 0,0 km/h
09.11.2014 08:00 5,9 C 81 % 980,1 hPa 0,0 l/m 0,0 km/h N-NW 2,9 C 5,9 C 0,0 km/h
09.11.2014 09:00 10,5 C 82 % 980,4 hPa 0,0 l/m 0,0 km/h SO 7,6 C 10,5 C 0,0 km/h
09.11.2014 10:00 13,5 C 75 % 980,7 hPa 0,0 l/m 0,0 km/h SO 9,2 C 13,5 C 0,0 km/h
09.11.2014 11:00 12,5 C 75 % 980,4 hPa 0,0 l/m 0,0 km/h SO 8,2 C 12,5 C 0,0 km/h
09.11.2014 12:00 13,3 C 72 % 979,9 hPa 0,0 l/m 0,0 km/h O-SO 8,4 C 13,3 C 0,0 km/h
09.11.2014 13:00 13,6 C 71 % 979,1 hPa 0,0 l/m 0,0 km/h W-NW 8,4 C 13,6 C 0,0 km/h
09.11.2014 14:00 11,9 C 77 % 979,1 hPa 0,0 l/m 0,0 km/h W 8,0 C 11,9 C 0,0 km/h
09.11.2014 15:00 13,4 C 73 % 979,0 hPa 0,0 l/m 0,0 km/h W 8,7 C 13,4 C 0,0 km/h
09.11.2014 16:00 8,8 C 78 % 979,1 hPa 0,0 l/m 0,0 km/h W 5,2 C 8,8 C 0,0 km/h
09.11.2014 17:00 6,8 C 82 % 979,0 hPa 0,0 l/m 0,0 km/h W 3,9 C 6,8 C 0,0 km/h
09.11.2014 18:00 6,8 C 85 % 979,7 hPa 0,0 l/m 0,0 km/h W 4,5 C 6,8 C 0,0 km/h
09.11.2014 19:00 6,9 C 85 % 980,0 hPa 0,0 l/m 0,0 km/h W-NW 4,6 C 6,9 C 0,0 km/h
09.11.2014 20:00 7,1 C 85 % 981,0 hPa 0,0 l/m 0,0 km/h W 4,8 C 7,1 C 0,0 km/h
09.11.2014 21:00 6,6 C 85 % 980,6 hPa 0,0 l/m 0,0 km/h S-SW 4,3 C 6,6 C 0,0 km/h
09.11.2014 22:00 6,5 C 85 % 981,1 hPa 0,0 l/m 0,0 km/h S-SW 4,2 C 6,5 C 0,0 km/h
09.11.2014 23:00 6,3 C 85 % 981,1 hPa 0,0 l/m 0,0 km/h S-SW 4,0 C 6,3 C 0,0 km/h
Min-Datum _ 07.11.14 08.11.14 04.11.14 - 03.11.14 - 07.11.14 07.11.14 03.11.14
_ Min-Zeit 07:53 14:53 15:53 - 00:53 - 07:53 07:53 00:53
Minimum _ 0,9 C 45 % 965,6 hPa - 0,0 km/h - -1,3 C 0,9 C 0,0 km/h
Max-Datum _ 08.11.14 06.11.14 08.11.14 05.11.14 08.11.14 - 03.11.14 08.11.14 08.11.14
_ Max-Zeit 14:53 21:53 08:53 06:53 10:53 - 09:53 14:53 10:53
Maximum _ 21,8 C 86 % 985,8 hPa 0,8 l/m 18,8 km/h
S-SW
- 12,4 C 21,8 C 10,4 km/h
S-SW
Durchschnitt _ 8,9 C 80 % 978,3 hPa #9,5 l/m 0,6 km/h SO 5,5 C 8,8 C 0,3 km/h
www.sexauwetter.de